Time;durP1;ratioP1;P1;durP2;ratioP2;P2;SDS_P1;SDS_P2;PMS_P1;PMS_P2;Temp;Humidity;BMP_temperature;BMP_pressure;BME280_temperature;BME280_humidity;BME280_pressure;Samples;Min_cycle;Max_cycle;Signal;HPM_P1;HPM_P2
2022/06/23 00:01:43;;;;;;;;;;;;;;;;;;5071676;28;19921;-68
2022/06/23 00:04:09;;;;;;;;;;;;;;;;;;5071676;28;19927;-68
2022/06/23 00:06:35;;;;;;;;;;;;;;;;;;5070076;28;19920;-68
2022/06/23 00:09:01;;;;;;;;;;;;;;;;;;5071608;28;19928;-68
2022/06/23 00:11:27;;;;;;;;;;;;;;;;;;5071556;28;19925;-68
2022/06/23 00:13:54;;;;;;;;;;;;;;;;;;5070848;28;19920;-68
2022/06/23 00:16:20;;;;;;;;;;;;;;;;;;5071737;28;20069;-68
2022/06/23 00:18:45;;;;;;;;;;;;;;;;;;5071301;28;20342;-68
2022/06/23 00:21:11;;;;;;;;;;;;;;;;;;5070519;28;19930;-68
2022/06/23 00:23:37;;;;;;;;;;;;;;;;;;5071644;28;20279;-68
2022/06/23 00:26:03;;;;;;;;;;;;;;;;;;5078846;28;19920;-68
2022/06/23 00:28:29;;;;;;;;;;;;;;;;;;5089499;28;19920;-68
2022/06/23 00:30:55;;;;;;;;;;;;;;;;;;5090235;28;20023;-68
2022/06/23 00:33:21;;;;;;;;;;;;;;;;;;5091321;28;19920;-68
2022/06/23 00:35:47;;;;;;;;;;;;;;;;;;5091054;28;19935;-68
2022/06/23 00:38:13;;;;;;;;;;;;;;;;;;5091602;28;20018;-68
2022/06/23 00:40:39;;;;;;;;;;;;;;;;;;5091454;28;19942;-68
2022/06/23 00:43:05;;;;;;;;;;;;;;;;;;5090448;28;19928;-68
2022/06/23 00:45:30;;;;;;;;;;;;;;;;;;5089798;28;20011;-68
2022/06/23 00:47:56;;;;;;;;;;;;;;;;;;5091320;28;20332;-68
2022/06/23 00:50:22;;;;;;;;;;;;;;;;;;5090866;28;19969;-68
2022/06/23 00:52:48;;;;;;;;;;;;;;;;;;5091194;28;19981;-68
2022/06/23 00:55:14;;;;;;;;;;;;;;;;;;5091309;28;20389;-68
2022/06/23 00:57:40;;;;;;;;;;;;;;;;;;5090768;28;19927;-68
2022/06/23 01:00:06;;;;;;;;;;;;;;;;;;5090994;28;20026;-68
2022/06/23 01:02:32;;;;;;;;;;;;;;;;;;5091113;28;20020;-68
2022/06/23 01:04:58;;;;;;;;;;;;;;;;;;5091093;28;19927;-68
2022/06/23 01:07:24;;;;;;;;;;;;;;;;;;5090553;28;19924;-68
2022/06/23 01:09:50;;;;;;;;;;;;;;;;;;5091066;28;19924;-68
2022/06/23 01:12:16;;;;;;;;;;;;;;;;;;5090644;28;19931;-68
2022/06/23 01:14:42;;;;;;;;;;;;;;;;;;5090314;28;20378;-68
2022/06/23 01:17:07;;;;;;;;;;;;;;;;;;5090947;28;20046;-68
2022/06/23 01:19:33;;;;;;;;;;;;;;;;;;5090902;28;19931;-68
2022/06/23 01:21:59;;;;;;;;;;;;;;;;;;5090121;28;19920;-68
2022/06/23 01:24:25;;;;;;;;;;;;;;;;;;5091022;28;19927;-68
2022/06/23 01:26:51;;;;;;;;;;;;;;;;;;5076585;28;20011;-68
2022/06/23 01:29:17;;;;;;;;;;;;;;;;;;5070097;28;20047;-68
2022/06/23 01:31:43;;;;;;;;;;;;;;;;;;5070356;28;19924;-68
2022/06/23 01:34:09;;;;;;;;;;;;;;;;;;5072034;28;19943;-68
2022/06/23 01:36:35;;;;;;;;;;;;;;;;;;5073838;28;20015;-68
2022/06/23 01:39:01;;;;;;;;;;;;;;;;;;5074599;28;19924;-68
2022/06/23 01:41:27;;;;;;;;;;;;;;;;;;5074496;28;20360;-68
2022/06/23 01:43:58;;;;;;;;;;;;;;;;;;5073529;28;19932;-68
2022/06/23 01:46:24;;;;;;;;;;;;;;;;;;5074226;28;19930;-68
2022/06/23 01:48:53;;;;;;;;;;;;;;;;;;5073116;28;19999;-68
2022/06/23 01:51:19;;;;;;;;;;;;;;;;;;5073763;28;19931;-68
2022/06/23 01:53:45;;;;;;;;;;;;;;;;;;5074317;28;19983;-68
2022/06/23 01:56:11;;;;;;;;;;;;;;;;;;5074455;28;20271;-68
2022/06/23 01:58:37;;;;;;;;;;;;;;;;;;5073618;28;19970;-68
2022/06/23 02:01:03;;;;;;;;;;;;;;;;;;5074022;28;20302;-68
2022/06/23 02:03:29;;;;;;;;;;;;;;;;;;5072717;28;19920;-68
2022/06/23 02:05:55;;;;;;;;;;;;;;;;;;5073524;28;19986;-68
2022/06/23 02:08:21;;;;;;;;;;;;;;;;;;5073945;28;19920;-68
2022/06/23 02:10:47;;;;;;;;;;;;;;;;;;5072699;28;19968;-68
2022/06/23 02:13:12;;;;;;;;;;;;;;;;;;5073141;28;20011;-68
2022/06/23 02:15:38;;;;;;;;;;;;;;;;;;5074007;28;19920;-68
2022/06/23 02:18:04;;;;;;;;;;;;;;;;;;5073858;28;20328;-68
2022/06/23 02:20:30;;;;;;;;;;;;;;;;;;5071957;28;19920;-68
2022/06/23 02:22:56;;;;;;;;;;;;;;;;;;5073798;28;19921;-68
2022/06/23 02:25:22;;;;;;;;;;;;;;;;;;5075539;28;19931;-68
2022/06/23 02:27:48;;;;;;;;;;;;;;;;;;5093388;28;20336;-68
2022/06/23 02:30:14;;;;;;;;;;;;;;;;;;5093830;28;20309;-68
2022/06/23 02:32:40;;;;;;;;;;;;;;;;;;5093630;28;19931;-68
2022/06/23 02:35:05;;;;;;;;;;;;;;;;;;5091638;28;19924;-68
2022/06/23 02:37:31;;;;;;;;;;;;;;;;;;5093847;28;20069;-68
2022/06/23 02:39:57;;;;;;;;;;;;;;;;;;5093660;28;19920;-68
2022/06/23 02:42:23;;;;;;;;;;;;;;;;;;5092845;28;19920;-68
2022/06/23 02:44:49;;;;;;;;;;;;;;;;;;5093436;28;19920;-68
2022/06/23 02:47:15;;;;;;;;;;;;;;;;;;5093682;28;19959;-68
2022/06/23 02:49:41;;;;;;;;;;;;;;;;;;5093079;28;19963;-68
2022/06/23 02:52:07;;;;;;;;;;;;;;;;;;5093304;28;19970;-68
2022/06/23 02:54:33;;;;;;;;;;;;;;;;;;5093405;28;20023;-68
2022/06/23 02:56:59;;;;;;;;;;;;;;;;;;5092941;28;19928;-68
2022/06/23 02:59:24;;;;;;;;;;;;;;;;;;5093391;28;20374;-68
2022/06/23 03:01:50;;;;;;;;;;;;;;;;;;5092042;28;19920;-68
2022/06/23 03:04:16;;;;;;;;;;;;;;;;;;5092564;28;20364;-68
2022/06/23 03:06:42;;;;;;;;;;;;;;;;;;5091727;28;19920;-68
2022/06/23 03:09:08;;;;;;;;;;;;;;;;;;5092020;28;19977;-68
2022/06/23 03:11:52;;;;;;;;;;;;;;;;;;5092343;28;19997;-68
2022/06/23 03:14:18;;;;;;;;;;;;;;;;;;5093094;28;19981;-68
2022/06/23 03:16:44;;;;;;;;;;;;;;;;;;5093029;28;19927;-68
2022/06/23 03:19:10;;;;;;;;;;;;;;;;;;5090993;28;19984;-68
2022/06/23 03:21:36;;;;;;;;;;;;;;;;;;5092879;28;19943;-68
2022/06/23 03:24:02;;;;;;;;;;;;;;;;;;5092630;28;19924;-68
2022/06/23 03:26:28;;;;;;;;;;;;;;;;;;5081176;28;19952;-68
2022/06/23 03:28:54;;;;;;;;;;;;;;;;;;5070965;28;20383;-68
2022/06/23 03:31:20;;;;;;;;;;;;;;;;;;5072442;28;20397;-68
2022/06/23 03:33:46;;;;;;;;;;;;;;;;;;5071718;28;19925;-68
2022/06/23 03:36:12;;;;;;;;;;;;;;;;;;5072468;28;19977;-68
2022/06/23 03:41:37;;;;;;;;;;;;;;;;;;5071490;28;19924;-68
2022/06/23 03:44:03;;;;;;;;;;;;;;;;;;5071755;28;20029;-68
2022/06/23 03:46:29;;;;;;;;;;;;;;;;;;5072365;28;19968;-68
2022/06/23 03:48:55;;;;;;;;;;;;;;;;;;5071562;28;19928;-68
2022/06/23 03:51:21;;;;;;;;;;;;;;;;;;5070473;28;19993;-68
2022/06/23 03:53:47;;;;;;;;;;;;;;;;;;5071809;28;19969;-68
2022/06/23 03:56:13;;;;;;;;;;;;;;;;;;5070723;28;19985;-68
2022/06/23 03:58:39;;;;;;;;;;;;;;;;;;5071952;28;19920;-68
2022/06/23 04:01:05;;;;;;;;;;;;;;;;;;5070350;28;19931;-68
2022/06/23 04:03:31;;;;;;;;;;;;;;;;;;5071372;28;19921;-68
2022/06/23 04:05:56;;;;;;;;;;;;;;;;;;5071953;28;19921;-68
2022/06/23 04:08:22;;;;;;;;;;;;;;;;;;5070582;28;19920;-68
2022/06/23 04:10:48;;;;;;;;;;;;;;;;;;5071022;28;19920;-68
2022/06/23 04:13:14;;;;;;;;;;;;;;;;;;5071553;28;20019;-68
2022/06/23 04:15:40;;;;;;;;;;;;;;;;;;5071455;28;19977;-69
2022/06/23 04:18:06;;;;;;;;;;;;;;;;;;5071079;28;19921;-69
2022/06/23 04:20:32;;;;;;;;;;;;;;;;;;5053215;28;19983;-69
2022/06/23 04:22:58;;;;;;;;;;;;;;;;;;5071466;28;19986;-69
2022/06/23 04:25:24;;;;;;;;;;;;;;;;;;5072811;28;20265;-69
2022/06/23 04:27:50;;;;;;;;;;;;;;;;;;5091355;28;19946;-69
2022/06/23 04:30:16;;;;;;;;;;;;;;;;;;5091561;28;19920;-69
2022/06/23 04:32:42;;;;;;;;;;;;;;;;;;5090725;28;19935;-69
2022/06/23 04:35:08;;;;;;;;;;;;;;;;;;5091617;28;19920;-69
2022/06/23 04:37:34;;;;;;;;;;;;;;;;;;5091474;28;19924;-69
2022/06/23 04:40:00;;;;;;;;;;;;;;;;;;5090528;28;19924;-69
2022/06/23 04:42:26;;;;;;;;;;;;;;;;;;5091493;28;19920;-69
2022/06/23 04:44:51;;;;;;;;;;;;;;;;;;5091472;28;20268;-69
2022/06/23 04:47:17;;;;;;;;;;;;;;;;;;5090804;28;19920;-69
2022/06/23 04:49:43;;;;;;;;;;;;;;;;;;5089806;28;19927;-69
2022/06/23 04:52:09;;;;;;;;;;;;;;;;;;5089597;28;19959;-69
2022/06/23 04:54:35;;;;;;;;;;;;;;;;;;5090474;28;19924;-69
2022/06/23 04:57:01;;;;;;;;;;;;;;;;;;5091256;28;19924;-69
2022/06/23 04:59:27;;;;;;;;;;;;;;;;;;5091066;28;19921;-69
2022/06/23 05:01:53;;;;;;;;;;;;;;;;;;5090452;28;19920;-69
2022/06/23 05:04:19;;;;;;;;;;;;;;;;;;5087215;28;20347;-69
2022/06/23 05:06:45;;;;;;;;;;;;;;;;;;5091055;28;20247;-68
2022/06/23 05:09:10;;;;;;;;;;;;;;;;;;5091070;28;19924;-68
2022/06/23 05:11:36;;;;;;;;;;;;;;;;;;5090097;28;19924;-68
2022/06/23 05:14:02;;;;;;;;;;;;;;;;;;5090434;28;19927;-68
2022/06/23 05:16:28;;;;;;;;;;;;;;;;;;5090921;28;19920;-68
2022/06/23 05:18:54;;;;;;;;;;;;;;;;;;5090310;28;19924;-68
2022/06/23 05:21:20;;;;;;;;;;;;;;;;;;5090847;28;19920;-68
2022/06/23 05:23:46;;;;;;;;;;;;;;;;;;5091039;28;19920;-68
2022/06/23 05:26:12;;;;;;;;;;;;;;;;;;5089986;28;19924;-68
2022/06/23 05:28:38;;;;;;;;;;;;;;;;;;5090728;28;19973;-68
2022/06/23 05:31:04;;;;;;;;;;;;;;;;;;5090500;28;20390;-68
2022/06/23 05:33:29;;;;;;;;;;;;;;;;;;5089982;28;19967;-68
2022/06/23 05:35:55;;;;;;;;;;;;;;;;;;5090727;28;20322;-69
2022/06/23 05:38:21;;;;;;;;;;;;;;;;;;5090782;28;20346;-69
2022/06/23 05:40:47;;;;;;;;;;;;;;;;;;5088535;28;19954;-69
2022/06/23 05:43:13;;;;;;;;;;;;;;;;;;5090310;28;19928;-69
2022/06/23 05:45:39;;;;;;;;;;;;;;;;;;5089327;28;20409;-69
2022/06/23 05:48:05;;;;;;;;;;;;;;;;;;5089895;28;19969;-69
2022/06/23 05:50:31;;;;;;;;;;;;;;;;;;5090247;28;20324;-69
2022/06/23 05:52:57;;;;;;;;;;;;;;;;;;5088149;28;19978;-65
2022/06/23 05:55:23;;;;;;;;;;;;;;;;;;5090018;28;19920;-65
2022/06/23 05:57:49;;;;;;;;;;;;;;;;;;5090808;28;19920;-64
2022/06/23 06:00:15;;;;;;;;;;;;;;;;;;5091093;28;19928;-66
2022/06/23 06:02:41;;;;;;;;;;;;;;;;;;5093193;28;19920;-66
2022/06/23 06:05:08;;;;;;;;;;;;;;;;;;5098036;28;20008;-66
2022/06/23 06:07:34;;;;;;;;;;;;;;;;;;5089062;28;19928;-65
2022/06/23 06:10:00;;;;;;;;;;;;;;;;;;5090235;28;19920;-65
2022/06/23 06:12:26;;;;;;;;;;;;;;;;;;5083533;28;19932;-64
2022/06/23 06:14:52;;;;;;;;;;;;;;;;;;5083619;28;19931;-65
2022/06/23 06:17:19;;;;;;;;;;;;;;;;;;5085193;28;20378;-64
2022/06/23 06:19:45;;;;;;;;;;;;;;;;;;5082637;28;19935;-65
2022/06/23 06:22:11;;;;;;;;;;;;;;;;;;5094218;28;19924;-66
2022/06/23 06:24:37;;;;;;;;;;;;;;;;;;5093554;28;19990;-66
2022/06/23 06:27:03;;;;;;;;;;;;;;;;;;5094558;28;19920;-66
2022/06/23 06:29:30;;;;;;;;;;;;;;;;;;5093454;28;19943;-66
2022/06/23 06:31:56;;;;;;;;;;;;;;;;;;5094468;28;19928;-67
2022/06/23 06:34:23;;;;;;;;;;;;;;;;;;5111489;28;20271;-68
2022/06/23 06:36:49;;;;;;;;;;;;;;;;;;5107523;28;19920;-67
2022/06/23 06:39:15;;;;;;;;;;;;;;;;;;5084885;28;19977;-67
2022/06/23 06:41:41;;;;;;;;;;;;;;;;;;5088507;28;19920;-67
2022/06/23 06:44:07;;;;;;;;;;;;;;;;;;5096640;28;19924;-67
2022/06/23 06:46:33;;;;;;;;;;;;;;;;;;5085565;28;19970;-65
2022/06/23 06:48:58;;;;;;;;;;;;;;;;;;5098729;28;19928;-65
2022/06/23 06:51:24;;;;;;;;;;;;;;;;;;5092669;28;19928;-68
2022/06/23 06:53:50;;;;;;;;;;;;;;;;;;5092964;28;19979;-68
2022/06/23 06:56:17;;;;;;;;;;;;;;;;;;5093970;28;19975;-68
2022/06/23 06:58:43;;;;;;;;;;;;;;;;;;5093354;28;19924;-68
2022/06/23 07:01:09;;;;;;;;;;;;;;;;;;5092802;28;20489;-67
2022/06/23 07:03:35;;;;;;;;;;;;;;;;;;5094370;28;19927;-65
2022/06/23 07:06:01;;;;;;;;;;;;;;;;;;5093208;28;19938;-65
2022/06/23 07:08:27;;;;;;;;;;;;;;;;;;5092999;28;19927;-67
2022/06/23 07:10:53;;;;;;;;;;;;;;;;;;5093533;28;19932;-66
2022/06/23 07:13:19;;;;;;;;;;;;;;;;;;5094503;28;19924;-66
2022/06/23 07:15:45;;;;;;;;;;;;;;;;;;5092570;28;19924;-65
2022/06/23 07:18:11;;;;;;;;;;;;;;;;;;5092731;28;19998;-65
2022/06/23 07:20:37;;;;;;;;;;;;;;;;;;5092264;28;20038;-67
2022/06/23 07:23:03;;;;;;;;;;;;;;;;;;5092083;28;19927;-64
2022/06/23 07:25:29;;;;;;;;;;;;;;;;;;5091912;28;20578;-64
2022/06/23 07:27:55;;;;;;;;;;;;;;;;;;5093577;28;19924;-65
2022/06/23 07:30:21;;;;;;;;;;;;;;;;;;5091261;28;19940;-66
2022/06/23 07:32:48;;;;;;;;;;;;;;;;;;5092495;28;19927;-67
2022/06/23 07:35:14;;;;;;;;;;;;;;;;;;5092037;28;19927;-68
2022/06/23 07:37:40;;;;;;;;;;;;;;;;;;5091836;28;19928;-68
2022/06/23 07:40:06;;;;;;;;;;;;;;;;;;5092857;28;19923;-65
2022/06/23 07:42:31;;;;;;;;;;;;;;;;;;5099284;28;19923;-67
2022/06/23 07:44:57;;;;;;;;;;;;;;;;;;5112895;28;19923;-65
2022/06/23 07:47:23;;;;;;;;;;;;;;;;;;5094174;28;19920;-66
2022/06/23 07:49:49;;;;;;;;;;;;;;;;;;5087886;28;20013;-67
2022/06/23 07:52:15;;;;;;;;;;;;;;;;;;5081072;28;19977;-68
2022/06/23 07:54:43;;;;;;;;;;;;;;;;;;5090712;28;22328;-68
2022/06/23 07:57:09;;;;;;;;;;;;;;;;;;5091208;28;19928;-66
2022/06/23 07:59:35;;;;;;;;;;;;;;;;;;5091039;28;19970;-66
2022/06/23 08:02:01;;;;;;;;;;;;;;;;;;5093512;28;19928;-67
2022/06/23 08:04:27;;;;;;;;;;;;;;;;;;5086275;28;20389;-66
2022/06/23 08:06:54;;;;;;;;;;;;;;;;;;5094851;28;20022;-70
2022/06/23 08:09:20;;;;;;;;;;;;;;;;;;5091793;28;19928;-69
2022/06/23 08:14:30;;;;;;;;;;;;;;;;;;5081396;28;20251;-68
2022/06/23 08:16:56;;;;;;;;;;;;;;;;;;5080671;28;19924;-66
2022/06/23 08:19:24;;;;;;;;;;;;;;;;;;5087573;28;19931;-67
2022/06/23 08:21:50;;;;;;;;;;;;;;;;;;5093008;28;19942;-68
2022/06/23 08:24:17;;;;;;;;;;;;;;;;;;5090975;28;19920;-67
2022/06/23 08:26:43;;;;;;;;;;;;;;;;;;5082161;28;19920;-67
2022/06/23 08:29:09;;;;;;;;;;;;;;;;;;5091745;28;20371;-68
2022/06/23 08:31:35;;;;;;;;;;;;;;;;;;5088625;28;19928;-66
2022/06/23 08:34:02;;;;;;;;;;;;;;;;;;5088131;28;19968;-67
2022/06/23 08:36:28;;;;;;;;;;;;;;;;;;5085630;28;19927;-66
2022/06/23 08:38:54;;;;;;;;;;;;;;;;;;5091791;28;19924;-65
2022/06/23 08:41:20;;;;;;;;;;;;;;;;;;5081960;28;20286;-64
2022/06/23 08:43:46;;;;;;;;;;;;;;;;;;5090637;28;20046;-67
2022/06/23 08:46:12;;;;;;;;;;;;;;;;;;5095713;28;19993;-68
2022/06/23 08:48:38;;;;;;;;;;;;;;;;;;5090731;28;19924;-65
2022/06/23 08:51:04;;;;;;;;;;;;;;;;;;5094672;28;19976;-68
2022/06/23 08:53:29;;;;;;;;;;;;;;;;;;5079736;28;19931;-68
2022/06/23 08:55:55;;;;;;;;;;;;;;;;;;5091127;28;19993;-68
2022/06/23 08:58:21;;;;;;;;;;;;;;;;;;5080297;28;19924;-66
2022/06/23 09:00:47;;;;;;;;;;;;;;;;;;5072831;28;19951;-66
2022/06/23 09:03:13;;;;;;;;;;;;;;;;;;5086491;28;19973;-68
2022/06/23 09:05:39;;;;;;;;;;;;;;;;;;5086253;28;20040;-67
2022/06/23 09:08:05;;;;;;;;;;;;;;;;;;5084695;28;19920;-67
2022/06/23 09:10:31;;;;;;;;;;;;;;;;;;5086849;28;20049;-68
2022/06/23 09:12:57;;;;;;;;;;;;;;;;;;5090763;28;20015;-67
2022/06/23 09:15:23;;;;;;;;;;;;;;;;;;5095008;28;19943;-68
2022/06/23 09:17:49;;;;;;;;;;;;;;;;;;5083542;28;19924;-68
2022/06/23 09:20:15;;;;;;;;;;;;;;;;;;5089954;28;20015;-68
2022/06/23 09:22:41;;;;;;;;;;;;;;;;;;5095868;28;19920;-68
2022/06/23 09:25:07;;;;;;;;;;;;;;;;;;5090180;28;19944;-69
2022/06/23 09:27:33;;;;;;;;;;;;;;;;;;5090669;28;19920;-68
2022/06/23 09:29:58;;;;;;;;;;;;;;;;;;5093592;28;20002;-65
2022/06/23 09:32:24;;;;;;;;;;;;;;;;;;5092009;28;19997;-67
2022/06/23 09:34:50;;;;;;;;;;;;;;;;;;5095878;28;20011;-67
2022/06/23 09:37:16;;;;;;;;;;;;;;;;;;5089727;28;19989;-68
2022/06/23 09:39:42;;;;;;;;;;;;;;;;;;5090691;28;19924;-66
2022/06/23 09:42:09;;;;;;;;;;;;;;;;;;5088416;28;19920;-67
2022/06/23 09:44:35;;;;;;;;;;;;;;;;;;5081849;28;20343;-66
2022/06/23 09:47:01;;;;;;;;;;;;;;;;;;5083415;28;19935;-68
2022/06/23 09:49:27;;;;;;;;;;;;;;;;;;5090887;28;19920;-69
2022/06/23 09:51:53;;;;;;;;;;;;;;;;;;5077965;28;19994;-68
2022/06/23 09:54:19;;;;;;;;;;;;;;;;;;5093926;28;19920;-69
2022/06/23 09:56:45;;;;;;;;;;;;;;;;;;5093252;28;19924;-68
2022/06/23 09:59:11;;;;;;;;;;;;;;;;;;5093732;28;20023;-68
2022/06/23 10:01:37;;;;;;;;;;;;;;;;;;5093612;28;19924;-69
2022/06/23 10:04:03;;;;;;;;;;;;;;;;;;5086469;28;20320;-69
2022/06/23 10:06:29;;;;;;;;;;;;;;;;;;5083266;28;19920;-68
2022/06/23 10:08:55;;;;;;;;;;;;;;;;;;5082738;28;19931;-67
2022/06/23 10:11:21;;;;;;;;;;;;;;;;;;5094317;28;19924;-69
2022/06/23 10:13:47;;;;;;;;;;;;;;;;;;5083666;28;19924;-67
2022/06/23 10:16:13;;;;;;;;;;;;;;;;;;5092815;28;20007;-67
2022/06/23 10:18:39;;;;;;;;;;;;;;;;;;5091778;28;19942;-67
2022/06/23 10:21:05;;;;;;;;;;;;;;;;;;5080030;28;19920;-67
2022/06/23 10:23:31;;;;;;;;;;;;;;;;;;5080096;28;19924;-68
2022/06/23 10:25:57;;;;;;;;;;;;;;;;;;5084368;28;19920;-69
2022/06/23 10:28:24;;;;;;;;;;;;;;;;;;5084375;28;20562;-69
2022/06/23 10:30:50;;;;;;;;;;;;;;;;;;5091443;28;19931;-68
2022/06/23 10:33:16;;;;;;;;;;;;;;;;;;5092320;28;19932;-68
2022/06/23 10:35:42;;;;;;;;;;;;;;;;;;5093823;28;19986;-69
2022/06/23 10:38:08;;;;;;;;;;;;;;;;;;5093895;28;19994;-68
2022/06/23 10:40:34;;;;;;;;;;;;;;;;;;5086884;28;19924;-68
2022/06/23 10:43:00;;;;;;;;;;;;;;;;;;5088515;28;19946;-68
2022/06/23 10:45:26;;;;;;;;;;;;;;;;;;5082841;28;20007;-68
2022/06/23 10:47:52;;;;;;;;;;;;;;;;;;5104580;28;19924;-68
2022/06/23 10:50:18;;;;;;;;;;;;;;;;;;5090498;28;20558;-68
2022/06/23 10:52:44;;;;;;;;;;;;;;;;;;5083629;28;19936;-68
2022/06/23 10:55:10;;;;;;;;;;;;;;;;;;5092873;28;19925;-68
2022/06/23 10:57:36;;;;;;;;;;;;;;;;;;5094874;28;21284;-68
2022/06/23 11:00:02;;;;;;;;;;;;;;;;;;5106578;28;19928;-68
2022/06/23 11:02:28;;;;;;;;;;;;;;;;;;5094856;28;20313;-68
2022/06/23 11:04:55;;;;;;;;;;;;;;;;;;5091904;28;19928;-68
2022/06/23 11:07:23;;;;;;;;;;;;;;;;;;5098716;28;19924;-68
2022/06/23 11:09:49;;;;;;;;;;;;;;;;;;5090985;28;20383;-68
2022/06/23 11:12:15;;;;;;;;;;;;;;;;;;5088275;28;19932;-67
2022/06/23 11:14:41;;;;;;;;;;;;;;;;;;5081482;28;19924;-68
2022/06/23 11:17:07;;;;;;;;;;;;;;;;;;5089572;28;19923;-67
2022/06/23 11:19:33;;;;;;;;;;;;;;;;;;5092126;28;20297;-71
2022/06/23 11:21:59;;;;;;;;;;;;;;;;;;5082400;28;19921;-69
2022/06/23 11:24:25;;;;;;;;;;;;;;;;;;5090226;28;20013;-68
2022/06/23 11:26:51;;;;;;;;;;;;;;;;;;5082625;28;19928;-66
2022/06/23 11:29:17;;;;;;;;;;;;;;;;;;5084072;28;19920;-66
2022/06/23 11:31:43;;;;;;;;;;;;;;;;;;5101022;28;20402;-69
2022/06/23 11:34:11;;;;;;;;;;;;;;;;;;5094202;28;19924;-69
2022/06/23 11:36:37;;;;;;;;;;;;;;;;;;5081226;28;19920;-68
2022/06/23 11:39:03;;;;;;;;;;;;;;;;;;5094529;28;20007;-68
2022/06/23 11:41:29;;;;;;;;;;;;;;;;;;5083119;28;19920;-69
2022/06/23 11:43:55;;;;;;;;;;;;;;;;;;5079180;28;19928;-68
2022/06/23 11:46:21;;;;;;;;;;;;;;;;;;5086232;28;19924;-67
2022/06/23 11:48:47;;;;;;;;;;;;;;;;;;5082167;28;19984;-67
2022/06/23 11:51:13;;;;;;;;;;;;;;;;;;5084447;28;19929;-68
2022/06/23 11:53:39;;;;;;;;;;;;;;;;;;5081015;28;20350;-68
2022/06/23 11:56:04;;;;;;;;;;;;;;;;;;5086179;28;19928;-68
2022/06/23 11:58:30;;;;;;;;;;;;;;;;;;5082978;28;19952;-69
2022/06/23 12:00:56;;;;;;;;;;;;;;;;;;5083124;28;19985;-68
2022/06/23 12:03:22;;;;;;;;;;;;;;;;;;5105604;28;19992;-68
2022/06/23 12:05:48;;;;;;;;;;;;;;;;;;5093450;28;19920;-68
2022/06/23 12:08:14;;;;;;;;;;;;;;;;;;5080441;28;19981;-68
2022/06/23 12:10:40;;;;;;;;;;;;;;;;;;5088525;28;19942;-68
2022/06/23 12:13:06;;;;;;;;;;;;;;;;;;5087572;28;19994;-68
2022/06/23 12:15:32;;;;;;;;;;;;;;;;;;5086654;28;19920;-67
2022/06/23 12:17:58;;;;;;;;;;;;;;;;;;5093430;28;20049;-67
2022/06/23 12:20:24;;;;;;;;;;;;;;;;;;5099135;28;19975;-64
2022/06/23 12:22:50;;;;;;;;;;;;;;;;;;5084178;28;19921;-66
2022/06/23 12:25:16;;;;;;;;;;;;;;;;;;5082592;28;19920;-66
2022/06/23 12:27:42;;;;;;;;;;;;;;;;;;5092295;28;19946;-66
2022/06/23 12:30:08;;;;;;;;;;;;;;;;;;5091444;28;19927;-66
2022/06/23 12:32:34;;;;;;;;;;;;;;;;;;5096628;28;19930;-67
2022/06/23 12:35:02;;;;;;;;;;;;;;;;;;5085300;28;19924;-68
2022/06/23 12:37:28;;;;;;;;;;;;;;;;;;5086521;28;19920;-68
2022/06/23 12:39:54;;;;;;;;;;;;;;;;;;5082495;28;19943;-66
2022/06/23 12:42:19;;;;;;;;;;;;;;;;;;5095085;28;19978;-66
2022/06/23 12:44:45;;;;;;;;;;;;;;;;;;5095458;28;19947;-67
2022/06/23 12:47:11;;;;;;;;;;;;;;;;;;5087985;28;19974;-66
2022/06/23 12:49:37;;;;;;;;;;;;;;;;;;5081769;28;20011;-68
2022/06/23 12:52:04;;;;;;;;;;;;;;;;;;5086523;28;19935;-66
2022/06/23 12:54:30;;;;;;;;;;;;;;;;;;5087458;28;19928;-65
2022/06/23 12:56:56;;;;;;;;;;;;;;;;;;5078212;28;20472;-68
2022/06/23 12:59:22;;;;;;;;;;;;;;;;;;5083680;28;19927;-68
2022/06/23 13:01:48;;;;;;;;;;;;;;;;;;5077603;28;20337;-67
2022/06/23 13:04:14;;;;;;;;;;;;;;;;;;5077460;28;19928;-67
2022/06/23 13:06:40;;;;;;;;;;;;;;;;;;5086512;28;19920;-66
2022/06/23 13:09:05;;;;;;;;;;;;;;;;;;5086804;28;19928;-67
2022/06/23 13:11:32;;;;;;;;;;;;;;;;;;5088475;28;19930;-66
2022/06/23 13:13:57;;;;;;;;;;;;;;;;;;5079708;28;19924;-66
2022/06/23 13:16:23;;;;;;;;;;;;;;;;;;5083969;28;19973;-66
2022/06/23 13:18:49;;;;;;;;;;;;;;;;;;5079543;28;19928;-66
2022/06/23 13:21:15;;;;;;;;;;;;;;;;;;5080926;28;20012;-66
2022/06/23 13:23:41;;;;;;;;;;;;;;;;;;5081615;28;19920;-66
2022/06/23 13:26:07;;;;;;;;;;;;;;;;;;5085059;28;19928;-66
2022/06/23 13:28:33;;;;;;;;;;;;;;;;;;5074675;28;19942;-65
2022/06/23 13:30:59;;;;;;;;;;;;;;;;;;5086227;28;19959;-66
2022/06/23 13:33:25;;;;;;;;;;;;;;;;;;5085812;28;19928;-67
2022/06/23 13:35:51;;;;;;;;;;;;;;;;;;5087829;28;20283;-67
2022/06/23 13:38:17;;;;;;;;;;;;;;;;;;5090332;28;19928;-66
2022/06/23 13:40:43;;;;;;;;;;;;;;;;;;5080148;28;19991;-66
2022/06/23 13:43:09;;;;;;;;;;;;;;;;;;5089725;28;20002;-67
2022/06/23 13:45:35;;;;;;;;;;;;;;;;;;5088906;28;19949;-67
2022/06/23 13:48:01;;;;;;;;;;;;;;;;;;5089501;28;19973;-65
2022/06/23 13:50:27;;;;;;;;;;;;;;;;;;5080457;28;19920;-69
2022/06/23 13:52:53;;;;;;;;;;;;;;;;;;5081550;28;19977;-66
2022/06/23 13:55:19;;;;;;;;;;;;;;;;;;5076208;28;20010;-66
2022/06/23 13:57:45;;;;;;;;;;;;;;;;;;5087817;28;19924;-70
2022/06/23 14:00:11;;;;;;;;;;;;;;;;;;5091807;28;20061;-68
2022/06/23 14:02:37;;;;;;;;;;;;;;;;;;5087071;28;19927;-69
2022/06/23 14:05:03;;;;;;;;;;;;;;;;;;5079114;28;19920;-70
2022/06/23 14:07:29;;;;;;;;;;;;;;;;;;5090791;28;20279;-69
2022/06/23 14:09:55;;;;;;;;;;;;;;;;;;5086466;28;19935;-70
2022/06/23 14:12:21;;;;;;;;;;;;;;;;;;5086057;28;19935;-67
2022/06/23 14:14:47;;;;;;;;;;;;;;;;;;5085976;28;19924;-67
2022/06/23 14:17:13;;;;;;;;;;;;;;;;;;5091334;28;19964;-68
2022/06/23 14:19:39;;;;;;;;;;;;;;;;;;5089551;28;19999;-67
2022/06/23 14:22:05;;;;;;;;;;;;;;;;;;5092556;28;19966;-67
2022/06/23 14:24:31;;;;;;;;;;;;;;;;;;5080094;28;19938;-68
2022/06/23 14:26:57;;;;;;;;;;;;;;;;;;5084555;28;20002;-67
2022/06/23 14:29:23;;;;;;;;;;;;;;;;;;5091902;28;19920;-67
2022/06/23 14:31:49;;;;;;;;;;;;;;;;;;5087453;28;19928;-67
2022/06/23 14:34:15;;;;;;;;;;;;;;;;;;5087512;28;19928;-70
2022/06/23 14:36:41;;;;;;;;;;;;;;;;;;5086793;28;19931;-69
2022/06/23 14:39:07;;;;;;;;;;;;;;;;;;5092453;28;19943;-69
2022/06/23 14:41:33;;;;;;;;;;;;;;;;;;5091353;28;20057;-70
2022/06/23 14:43:59;;;;;;;;;;;;;;;;;;5092438;28;19927;-69
2022/06/23 14:46:25;;;;;;;;;;;;;;;;;;5094483;28;19931;-69
2022/06/23 14:48:51;;;;;;;;;;;;;;;;;;5087951;28;20557;-69
2022/06/23 14:51:17;;;;;;;;;;;;;;;;;;5096657;28;20065;-70
2022/06/23 14:53:43;;;;;;;;;;;;;;;;;;5094030;28;19946;-70
2022/06/23 14:56:09;;;;;;;;;;;;;;;;;;5094075;28;19920;-70
2022/06/23 14:58:35;;;;;;;;;;;;;;;;;;5091888;28;19957;-70
2022/06/23 15:01:01;;;;;;;;;;;;;;;;;;5086687;28;19928;-70
2022/06/23 15:03:27;;;;;;;;;;;;;;;;;;5089968;28;19978;-70
2022/06/23 15:05:55;;;;;;;;;;;;;;;;;;5094847;28;19956;-70
2022/06/23 15:08:21;;;;;;;;;;;;;;;;;;5111294;28;19937;-70
2022/06/23 15:10:47;;;;;;;;;;;;;;;;;;5099738;28;20006;-70
2022/06/23 15:13:13;;;;;;;;;;;;;;;;;;5103272;28;19989;-70
2022/06/23 15:15:39;;;;;;;;;;;;;;;;;;5108086;28;20370;-70
2022/06/23 15:18:05;;;;;;;;;;;;;;;;;;5096097;28;19924;-70
2022/06/23 15:20:31;;;;;;;;;;;;;;;;;;5109586;28;19931;-70
2022/06/23 15:23:12;;;;;;;;;;;;;;;;;;5101183;28;20026;-70
2022/06/23 15:25:38;;;;;;;;;;;;;;;;;;5099508;28;19970;-70
2022/06/23 15:28:04;;;;;;;;;;;;;;;;;;5099955;28;20498;-70
2022/06/23 15:30:30;;;;;;;;;;;;;;;;;;5097185;28;19976;-71
2022/06/23 15:32:56;;;;;;;;;;;;;;;;;;5104803;28;19924;-70
2022/06/23 15:35:22;;;;;;;;;;;;;;;;;;5104484;28;19930;-70
2022/06/23 15:37:48;;;;;;;;;;;;;;;;;;5098747;28;19924;-70
2022/06/23 15:40:14;;;;;;;;;;;;;;;;;;5109773;28;19969;-70
2022/06/23 15:42:40;;;;;;;;;;;;;;;;;;5098753;28;19928;-70
2022/06/23 15:45:06;;;;;;;;;;;;;;;;;;5103478;28;20371;-70
2022/06/23 15:47:32;;;;;;;;;;;;;;;;;;5105502;28;20353;-70
2022/06/23 15:49:58;;;;;;;;;;;;;;;;;;5096772;28;19920;-70
2022/06/23 15:52:24;;;;;;;;;;;;;;;;;;5109288;28;19928;-70
2022/06/23 15:54:50;;;;;;;;;;;;;;;;;;5097522;28;19926;-70
2022/06/23 15:57:16;;;;;;;;;;;;;;;;;;5102408;28;20316;-70
2022/06/23 15:59:42;;;;;;;;;;;;;;;;;;5106176;28;20010;-70
2022/06/23 16:02:08;;;;;;;;;;;;;;;;;;5095113;28;20038;-70
2022/06/23 16:04:35;;;;;;;;;;;;;;;;;;5108222;28;20014;-70
2022/06/23 16:07:01;;;;;;;;;;;;;;;;;;5101467;28;19920;-70
2022/06/23 16:09:27;;;;;;;;;;;;;;;;;;5100209;28;19920;-70
2022/06/23 16:11:53;;;;;;;;;;;;;;;;;;5108436;28;19967;-70
2022/06/23 16:14:19;;;;;;;;;;;;;;;;;;5113706;28;19919;-71
2022/06/23 16:16:45;;;;;;;;;;;;;;;;;;5112790;28;20774;-70
2022/06/23 16:19:11;;;;;;;;;;;;;;;;;;5113581;28;19919;-70
2022/06/23 16:21:37;;;;;;;;;;;;;;;;;;5113450;28;19924;-70
2022/06/23 16:24:03;;;;;;;;;;;;;;;;;;5112715;28;19923;-70
2022/06/23 16:26:29;;;;;;;;;;;;;;;;;;5102284;28;19920;-70
2022/06/23 16:28:55;;;;;;;;;;;;;;;;;;5092788;28;20750;-70
2022/06/23 16:31:21;;;;;;;;;;;;;;;;;;5092358;28;19920;-70
2022/06/23 16:33:47;;;;;;;;;;;;;;;;;;5092858;28;19924;-70
2022/06/23 16:36:14;;;;;;;;;;;;;;;;;;5092749;28;19951;-70
2022/06/23 16:38:40;;;;;;;;;;;;;;;;;;5090822;28;19963;-70
2022/06/23 16:41:06;;;;;;;;;;;;;;;;;;5092679;28;19963;-70
2022/06/23 16:43:31;;;;;;;;;;;;;;;;;;5092167;28;19928;-69